Time;durP1;ratioP1;P1;durP2;ratioP2;P2;SDS_P1;SDS_P2;PMS_P1;PMS_P2;Temp;Humidity;BMP_temperature;BMP_pressure;BME280_temperature;BME280_humidity;BME280_pressure;Samples;Min_cycle;Max_cycle;Signal;HPM_P1;HPM_P2
2023/09/17 00:00:57;;;;;;;10.18;9.23;;;16.10;99.90;;;;;;5073567;28;20205;-68
2023/09/17 00:03:24;;;;;;;10.85;9.85;;;16.20;99.90;;;;;;5073428;28;20201;-68
2023/09/17 00:05:51;;;;;;;10.77;9.00;;;16.00;99.90;;;;;;5073238;28;20649;-68
2023/09/17 00:08:18;;;;;;;10.73;8.32;;;16.10;99.90;;;;;;5073458;28;20214;-68
2023/09/17 00:10:46;;;;;;;8.75;7.95;;;16.20;99.90;;;;;;5073372;28;20193;-68
2023/09/17 00:13:13;;;;;;;8.95;8.05;;;16.20;99.90;;;;;;5073352;28;20193;-68
2023/09/17 00:15:40;;;;;;;10.20;8.20;;;16.30;99.90;;;;;;5073223;28;20196;-69
2023/09/17 00:18:07;;;;;;;8.30;7.60;;;16.20;99.90;;;;;;5073336;28;20274;-68
2023/09/17 00:20:33;;;;;;;8.77;7.65;;;16.20;99.90;;;;;;5073180;28;20274;-68
2023/09/17 00:23:01;;;;;;;8.90;8.00;;;16.20;99.90;;;;;;5073207;28;20713;-69
2023/09/17 00:25:28;;;;;;;8.65;7.82;;;16.20;99.90;;;;;;5073276;28;20197;-68
2023/09/17 00:27:56;;;;;;;10.93;8.27;;;16.20;99.90;;;;;;5073050;28;20721;-69
2023/09/17 00:30:23;;;;;;;9.07;8.18;;;16.20;99.90;;;;;;5073261;28;20235;-68
2023/09/17 00:32:49;;;;;;;8.57;7.75;;;16.20;99.90;;;;;;5072948;28;20197;-68
2023/09/17 00:35:16;;;;;;;8.95;7.95;;;16.20;99.90;;;;;;5073069;28;20200;-68
2023/09/17 00:37:43;;;;;;;8.70;7.65;;;16.20;99.90;;;;;;5072739;28;20232;-68
2023/09/17 00:40:11;;;;;;;9.77;8.77;;;16.10;99.90;;;;;;5072996;28;20201;-68
2023/09/17 00:42:37;;;;;;;9.35;8.48;;;16.10;99.90;;;;;;5072926;28;20203;-68
2023/09/17 00:45:06;;;;;;;9.73;8.50;;;16.10;99.90;;;;;;5072773;28;20193;-69
2023/09/17 00:47:33;;;;;;;10.10;8.85;;;16.10;99.90;;;;;;5073055;28;20197;-69
2023/09/17 00:50:00;;;;;;;10.00;9.10;;;16.20;99.90;;;;;;5073001;28;20207;-69
2023/09/17 00:52:28;;;;;;;9.15;8.25;;;16.20;99.90;;;;;;5072823;28;20196;-69
2023/09/17 00:54:56;;;;;;;9.38;8.48;;;16.20;99.90;;;;;;5072857;28;20746;-68
2023/09/17 00:57:23;;;;;;;9.30;8.40;;;16.20;99.90;;;;;;5072580;28;20688;-68
2023/09/17 00:59:50;;;;;;;8.82;7.93;;;16.20;99.90;;;;;;5072656;28;20234;-69
2023/09/17 01:02:21;;;;;;;9.45;8.65;;;16.20;99.90;;;;;;5072001;28;20548;-68
2023/09/17 01:04:50;;;;;;;9.15;8.35;;;16.20;99.90;;;;;;5073019;28;20197;-69
2023/09/17 01:07:17;;;;;;;9.73;8.75;;;16.20;99.90;;;;;;5072695;28;20197;-69
2023/09/17 01:09:44;;;;;;;9.52;8.50;;;16.20;99.90;;;;;;5072407;28;20675;-69
2023/09/17 01:12:12;;;;;;;11.07;9.07;;;16.20;99.90;;;;;;5072444;28;20579;-69
2023/09/17 01:14:39;;;;;;;9.88;8.77;;;16.10;99.90;;;;;;5072413;28;20200;-69
2023/09/17 01:17:08;;;;;;;11.48;8.77;;;16.20;99.90;;;;;;5072503;28;20252;-66
2023/09/17 01:19:38;;;;;;;9.88;8.88;;;16.10;99.90;;;;;;5072534;28;20205;-69
2023/09/17 01:22:11;;;;;;;9.73;8.82;;;16.20;99.90;;;;;;5072717;28;20205;-69
2023/09/17 01:24:47;;;;;;;8.77;7.97;;;16.10;99.90;;;;;;5072309;28;20197;-69
2023/09/17 01:27:18;;;;;;;8.95;8.05;;;16.10;99.90;;;;;;5072284;28;20557;-69
2023/09/17 01:29:46;;;;;;;11.07;8.68;;;16.10;99.90;;;;;;5072744;28;20208;-69
2023/09/17 01:32:14;;;;;;;11.90;9.10;;;16.10;99.90;;;;;;5072283;28;20648;-67
2023/09/17 01:34:43;;;;;;;9.10;8.30;;;16.10;99.90;;;;;;5072241;28;20662;-69
2023/09/17 01:37:16;;;;;;;10.60;8.93;;;16.20;99.90;;;;;;5072242;28;20668;-69
2023/09/17 01:39:46;;;;;;;12.48;9.40;;;16.20;99.90;;;;;;5072271;28;20287;-68
2023/09/17 01:42:16;;;;;;;10.98;9.75;;;16.20;99.90;;;;;;5072468;28;20205;-68
2023/09/17 01:44:45;;;;;;;9.15;8.27;;;16.20;99.90;;;;;;5072573;28;20568;-68
2023/09/17 01:47:12;;;;;;;9.55;8.57;;;16.20;99.90;;;;;;5072254;28;20232;-68
2023/09/17 01:49:40;;;;;;;9.75;8.82;;;16.20;99.90;;;;;;5072195;28;20257;-68
2023/09/17 01:52:07;;;;;;;9.80;8.80;;;16.20;99.90;;;;;;5072364;28;20237;-68
2023/09/17 01:54:35;;;;;;;9.63;8.63;;;16.20;99.90;;;;;;5072242;28;20247;-68
2023/09/17 01:57:02;;;;;;;11.75;8.52;;;16.20;99.90;;;;;;5072023;28;20745;-68
2023/09/17 01:59:30;;;;;;;9.90;9.00;;;16.20;99.90;;;;;;5072051;28;20239;-68
2023/09/17 02:01:57;;;;;;;8.85;8.10;;;16.20;99.90;;;;;;5072099;28;20197;-68
2023/09/17 02:04:23;;;;;;;10.55;8.95;;;16.20;99.90;;;;;;5071965;28;20205;-68
2023/09/17 02:06:53;;;;;;;10.13;8.77;;;16.20;99.90;;;;;;5072211;28;20208;-68
2023/09/17 02:09:20;;;;;;;9.40;8.60;;;16.20;99.90;;;;;;5072122;28;20201;-68
2023/09/17 02:11:46;;;;;;;12.10;8.70;;;16.20;99.90;;;;;;5072177;28;20197;-68
2023/09/17 02:14:14;;;;;;;9.63;8.60;;;16.20;99.90;;;;;;5073360;28;20201;-68
2023/09/17 02:16:42;;;;;;;9.48;8.65;;;16.10;99.90;;;;;;5075447;28;20193;-68
2023/09/17 02:19:10;;;;;;;9.00;7.85;;;16.00;99.90;;;;;;5075921;28;20537;-69
2023/09/17 02:21:36;;;;;;;8.98;8.15;;;15.90;99.90;;;;;;5075577;28;20203;-68
2023/09/17 02:24:03;;;;;;;8.60;7.80;;;15.90;99.90;;;;;;5077289;28;20193;-68
2023/09/17 02:26:30;;;;;;;8.75;7.88;;;16.00;99.90;;;;;;5075330;28;20652;-68
2023/09/17 02:28:56;;;;;;;8.52;7.65;;;15.90;99.90;;;;;;5075258;28;20540;-68
2023/09/17 02:31:24;;;;;;;8.40;7.60;;;15.90;99.90;;;;;;5075316;28;20193;-68
2023/09/17 02:33:51;;;;;;;8.93;8.13;;;15.80;99.90;;;;;;5075475;28;20201;-68
2023/09/17 02:36:18;;;;;;;9.27;7.70;;;15.80;99.90;;;;;;5074980;28;20229;-68
2023/09/17 02:38:45;;;;;;;9.00;8.23;;;15.80;99.90;;;;;;5075252;28;20270;-68
2023/09/17 02:41:12;;;;;;;8.45;7.65;;;15.70;99.90;;;;;;5074987;28;20211;-68
2023/09/17 02:43:39;;;;;;;9.43;8.30;;;15.60;99.90;;;;;;5075112;28;20648;-68
2023/09/17 02:46:06;;;;;;;8.80;7.90;;;15.60;99.90;;;;;;5075012;28;20201;-68
2023/09/17 02:48:33;;;;;;;8.27;7.25;;;15.70;99.90;;;;;;5074954;28;20241;-68
2023/09/17 02:51:02;;;;;;;8.07;7.38;;;15.70;99.90;;;;;;5075000;28;20196;-68
2023/09/17 02:53:29;;;;;;;8.70;7.90;;;15.70;99.90;;;;;;5074809;28;20193;-68
2023/09/17 02:55:57;;;;;;;9.30;8.30;;;15.70;99.90;;;;;;5074716;28;20200;-68
2023/09/17 02:58:23;;;;;;;8.10;7.38;;;15.60;99.90;;;;;;5074514;28;20557;-68
2023/09/17 03:00:50;;;;;;;9.27;8.43;;;15.60;99.90;;;;;;5074553;28;20288;-68
2023/09/17 03:03:17;;;;;;;9.60;8.70;;;15.50;99.90;;;;;;5074863;28;20205;-68
2023/09/17 03:05:46;;;;;;;10.60;9.60;;;15.50;99.90;;;;;;5074658;28;20628;-68
2023/09/17 03:08:14;;;;;;;10.48;9.48;;;15.50;99.90;;;;;;5074517;28;20284;-68
2023/09/17 03:10:42;;;;;;;9.63;8.70;;;15.60;99.90;;;;;;5074476;28;20201;-68
2023/09/17 03:13:09;;;;;;;10.35;9.35;;;15.70;99.90;;;;;;5074354;28;20204;-68
2023/09/17 03:15:36;;;;;;;9.93;8.82;;;15.70;99.90;;;;;;5074449;28;20258;-68
2023/09/17 03:18:03;;;;;;;11.80;8.93;;;15.70;99.90;;;;;;5074416;28;20267;-68
2023/09/17 03:20:33;;;;;;;9.93;8.80;;;15.70;99.90;;;;;;5074431;28;20212;-68
2023/09/17 03:23:02;;;;;;;8.82;8.02;;;15.70;99.90;;;;;;5074191;28;20548;-68
2023/09/17 03:25:31;;;;;;;9.73;8.73;;;15.70;99.90;;;;;;5073676;28;20266;-68
2023/09/17 03:27:57;;;;;;;9.40;8.40;;;15.70;99.90;;;;;;5074175;28;20687;-68
2023/09/17 03:30:24;;;;;;;8.70;7.90;;;15.70;99.90;;;;;;5074022;28;20717;-68
2023/09/17 03:32:51;;;;;;;9.05;8.15;;;15.70;99.90;;;;;;5074001;28;20505;-68
2023/09/17 03:35:18;;;;;;;9.43;8.52;;;15.70;99.90;;;;;;5073875;28;20660;-68
2023/09/17 03:37:46;;;;;;;9.40;8.52;;;15.70;99.90;;;;;;5073723;28;20286;-68
2023/09/17 03:40:14;;;;;;;9.15;8.25;;;15.70;99.90;;;;;;5073727;28;20201;-68
2023/09/17 03:42:44;;;;;;;10.10;8.35;;;15.60;99.90;;;;;;5073796;28;20672;-68
2023/09/17 03:45:12;;;;;;;9.88;8.88;;;15.60;99.90;;;;;;5074062;28;20201;-68
2023/09/17 03:47:40;;;;;;;9.75;8.85;;;15.50;99.90;;;;;;5073775;28;20200;-68
2023/09/17 03:50:08;;;;;;;11.18;8.43;;;15.50;99.90;;;;;;5073746;28;20205;-68
2023/09/17 03:52:36;;;;;;;11.48;9.18;;;15.40;99.90;;;;;;5073579;28;20291;-68
2023/09/17 03:55:05;;;;;;;9.93;9.02;;;15.40;99.90;;;;;;5073849;28;20258;-68
2023/09/17 03:57:33;;;;;;;10.18;9.15;;;15.30;99.90;;;;;;5073580;28;20601;-68
2023/09/17 04:00:06;;;;;;;9.60;8.73;;;15.30;99.90;;;;;;5073431;28;20692;-68
2023/09/17 04:02:32;;;;;;;9.93;8.93;;;15.30;99.90;;;;;;5073577;28;20197;-68
2023/09/17 04:04:59;;;;;;;9.95;8.88;;;15.20;99.90;;;;;;5073472;28;20247;-68
2023/09/17 04:07:26;;;;;;;10.98;9.90;;;15.20;99.90;;;;;;5073295;28;20675;-68
2023/09/17 04:09:53;;;;;;;12.50;9.93;;;15.20;99.90;;;;;;5073500;28;20208;-68
2023/09/17 04:12:19;;;;;;;10.77;9.80;;;15.20;99.90;;;;;;5073470;28;20197;-68
2023/09/17 04:14:46;;;;;;;10.93;9.73;;;15.10;99.90;;;;;;5073286;28;20205;-68
2023/09/17 04:17:14;;;;;;;10.27;9.05;;;15.10;99.90;;;;;;5073272;28;20197;-68
2023/09/17 04:19:41;;;;;;;11.90;10.27;;;15.00;99.90;;;;;;5073101;28;20197;-68
2023/09/17 04:22:08;;;;;;;10.50;9.50;;;15.00;99.90;;;;;;5073012;28;20201;-68
2023/09/17 04:24:34;;;;;;;11.30;10.20;;;15.00;99.90;;;;;;5073210;28;20193;-68
2023/09/17 04:27:01;;;;;;;10.10;9.07;;;14.90;99.90;;;;;;5072995;28;20660;-68
2023/09/17 04:29:28;;;;;;;10.73;9.73;;;14.90;99.90;;;;;;5073020;28;20208;-68
2023/09/17 04:31:54;;;;;;;10.70;9.60;;;14.80;99.90;;;;;;5073070;28;20266;-68
2023/09/17 04:34:22;;;;;;;10.80;9.70;;;14.80;99.90;;;;;;5073035;28;20246;-68
2023/09/17 04:36:50;;;;;;;9.87;8.97;;;14.80;99.90;;;;;;5072132;28;20240;-68
2023/09/17 04:39:16;;;;;;;11.40;9.53;;;14.80;99.90;;;;;;5072979;28;20205;-68
2023/09/17 04:41:43;;;;;;;10.80;9.80;;;14.70;99.90;;;;;;5072829;28;20529;-68
2023/09/17 04:44:11;;;;;;;11.37;9.47;;;14.70;99.90;;;;;;5072921;28;20200;-68
2023/09/17 04:46:39;;;;;;;11.33;10.10;;;14.70;99.90;;;;;;5072812;28;20193;-68
2023/09/17 04:49:06;;;;;;;10.43;9.33;;;14.70;99.90;;;;;;5072655;28;20229;-68
2023/09/17 04:51:34;;;;;;;10.53;9.60;;;14.70;99.90;;;;;;5073009;28;20203;-68
2023/09/17 04:54:01;;;;;;;10.17;9.07;;;14.70;99.90;;;;;;5072829;28;20675;-68
2023/09/17 04:56:28;;;;;;;11.20;10.07;;;14.70;99.90;;;;;;5072924;28;20223;-68
2023/09/17 04:58:54;;;;;;;11.00;10.03;;;14.60;99.90;;;;;;5072694;28;20603;-68
2023/09/17 05:01:21;;;;;;;11.13;10.03;;;14.60;99.90;;;;;;5072635;28;20197;-70
2023/09/17 05:03:48;;;;;;;11.63;10.53;;;14.70;99.90;;;;;;5072929;28;20205;-68
2023/09/17 05:06:14;;;;;;;11.97;10.87;;;14.70;99.90;;;;;;5072760;28;20197;-68
2023/09/17 05:08:42;;;;;;;12.20;10.90;;;14.60;99.90;;;;;;5072666;28;20225;-68
2023/09/17 05:11:09;;;;;;;12.03;10.83;;;14.60;99.90;;;;;;5072557;28;20204;-68
2023/09/17 05:13:36;;;;;;;11.30;10.30;;;14.60;99.90;;;;;;5072650;28;20328;-68
2023/09/17 05:16:03;;;;;;;12.33;9.80;;;14.60;99.90;;;;;;5072484;28;20254;-68
2023/09/17 05:18:29;;;;;;;10.60;9.60;;;14.70;99.90;;;;;;5072713;28;20258;-68
2023/09/17 05:20:56;;;;;;;10.87;9.83;;;14.70;99.90;;;;;;5072596;28;20205;-68
2023/09/17 05:23:23;;;;;;;9.90;9.07;;;14.70;99.90;;;;;;5072604;28;20200;-69
2023/09/17 05:25:51;;;;;;;10.67;9.60;;;14.70;99.90;;;;;;5072457;28;20205;-69
2023/09/17 05:28:18;;;;;;;15.13;9.77;;;14.80;99.90;;;;;;5072368;28;20552;-68
2023/09/17 05:30:44;;;;;;;10.60;9.60;;;14.80;99.90;;;;;;5072276;28;20652;-69
2023/09/17 05:33:11;;;;;;;11.00;9.93;;;14.90;99.90;;;;;;5072582;28;20250;-68
2023/09/17 05:35:38;;;;;;;11.13;10.13;;;14.90;99.90;;;;;;5072416;28;20201;-68
2023/09/17 05:38:04;;;;;;;11.73;10.57;;;15.00;99.90;;;;;;5072197;28;20201;-68
2023/09/17 05:40:31;;;;;;;10.50;9.45;;;15.00;99.90;;;;;;5072345;28;20537;-68
2023/09/17 05:42:59;;;;;;;10.77;9.70;;;15.10;99.90;;;;;;5072257;28;20204;-68
2023/09/17 05:45:26;;;;;;;10.85;9.02;;;15.20;99.90;;;;;;5072178;28;20204;-68
2023/09/17 05:47:53;;;;;;;10.10;9.20;;;15.30;99.90;;;;;;5072973;28;20197;-68
2023/09/17 05:50:20;;;;;;;10.73;9.18;;;15.30;99.90;;;;;;5076014;28;20197;-68
2023/09/17 05:52:46;;;;;;;9.77;8.82;;;15.40;99.90;;;;;;5077296;28;20205;-68
2023/09/17 05:55:14;;;;;;;8.57;7.68;;;15.40;99.90;;;;;;5075899;28;20193;-68
2023/09/17 05:57:42;;;;;;;10.35;9.20;;;15.60;99.90;;;;;;5075802;28;20678;-68
2023/09/17 06:00:11;;;;;;;9.57;8.77;;;15.60;99.90;;;;;;5075722;28;20582;-68
2023/09/17 06:02:38;;;;;;;9.40;8.50;;;15.70;99.90;;;;;;5075715;28;20652;-68
2023/09/17 06:05:05;;;;;;;8.95;8.15;;;15.70;99.90;;;;;;5075734;28;20639;-68
2023/09/17 06:07:32;;;;;;;10.93;9.00;;;15.80;99.90;;;;;;5075872;28;20247;-68
2023/09/17 06:09:59;;;;;;;9.43;8.52;;;15.80;99.90;;;;;;5075653;28;20835;-68
2023/09/17 06:12:25;;;;;;;9.23;8.27;;;15.90;99.90;;;;;;5075552;28;20197;-68
2023/09/17 06:14:52;;;;;;;15.68;8.57;;;16.00;99.90;;;;;;5075810;28;20274;-68
2023/09/17 06:17:20;;;;;;;9.55;8.65;;;16.10;99.90;;;;;;5075670;28;20197;-68
2023/09/17 06:19:46;;;;;;;9.38;8.38;;;16.10;99.90;;;;;;5075542;28;20204;-68
2023/09/17 06:22:13;;;;;;;10.05;9.02;;;16.10;99.90;;;;;;5075508;28;20251;-68
2023/09/17 06:24:40;;;;;;;9.95;8.95;;;16.20;99.90;;;;;;5075315;28;20251;-69
2023/09/17 06:27:06;;;;;;;12.85;8.73;;;16.20;99.90;;;;;;5075175;28;20201;-68
2023/09/17 06:29:33;;;;;;;10.40;9.30;;;16.30;99.90;;;;;;5075361;28;20233;-68
2023/09/17 06:32:00;;;;;;;9.68;8.70;;;16.50;99.90;;;;;;5075292;28;20209;-68
2023/09/17 06:34:28;;;;;;;9.63;8.63;;;16.50;99.90;;;;;;5075166;28;20778;-68
2023/09/17 06:36:54;;;;;;;10.30;8.82;;;16.60;99.90;;;;;;5074929;28;20232;-68
2023/09/17 06:39:21;;;;;;;9.27;8.38;;;16.80;99.90;;;;;;5074988;28;20652;-68
2023/09/17 06:41:48;;;;;;;10.57;9.57;;;17.00;99.90;;;;;;5074974;28;20232;-68
2023/09/17 06:44:14;;;;;;;10.48;9.57;;;17.20;99.90;;;;;;5075057;28;20197;-68
2023/09/17 06:46:41;;;;;;;11.90;9.00;;;17.30;99.90;;;;;;5075041;28;20262;-68
2023/09/17 06:49:08;;;;;;;10.60;9.60;;;17.60;99.90;;;;;;5074868;28;20221;-68
2023/09/17 06:51:36;;;;;;;12.75;9.77;;;17.80;99.90;;;;;;5074803;28;20204;-68
2023/09/17 06:54:03;;;;;;;9.40;8.55;;;18.00;99.90;;;;;;5074801;28;20250;-68
2023/09/17 06:56:30;;;;;;;9.73;8.80;;;18.20;99.90;;;;;;5074978;28;20227;-68
2023/09/17 06:58:57;;;;;;;11.00;9.50;;;18.30;99.90;;;;;;5074778;28;20197;-68
2023/09/17 07:01:23;;;;;;;9.90;9.00;;;18.50;99.90;;;;;;5074128;28;20197;-68
2023/09/17 07:03:52;;;;;;;10.68;9.65;;;18.70;99.90;;;;;;5074672;28;20259;-68
2023/09/17 07:06:20;;;;;;;9.77;8.90;;;18.80;99.90;;;;;;5074509;28;20200;-68
2023/09/17 07:08:48;;;;;;;9.68;8.77;;;19.00;99.90;;;;;;5074604;28;20225;-69
2023/09/17 07:11:14;;;;;;;9.57;8.77;;;19.00;99.90;;;;;;5074736;28;20197;-68
2023/09/17 07:13:41;;;;;;;9.45;8.65;;;19.20;99.90;;;;;;5074484;28;20231;-68
2023/09/17 07:16:08;;;;;;;10.48;9.38;;;19.30;99.90;;;;;;5074288;28;20204;-68
2023/09/17 07:18:34;;;;;;;9.13;8.32;;;19.50;99.90;;;;;;5074384;28;20656;-69
2023/09/17 07:21:01;;;;;;;9.85;8.93;;;19.80;99.90;;;;;;5074184;28;20674;-68
2023/09/17 07:23:27;;;;;;;10.45;9.25;;;20.00;99.90;;;;;;5074401;28;20262;-68
2023/09/17 07:25:55;;;;;;;9.02;8.07;;;20.20;99.90;;;;;;5074164;28;20594;-68
2023/09/17 07:28:22;;;;;;;9.10;8.30;;;20.40;99.90;;;;;;5074116;28;20201;-68
2023/09/17 07:30:54;;;;;;;12.63;8.88;;;20.60;99.90;;;;;;5074064;28;20205;-69
2023/09/17 07:33:20;;;;;;;10.00;9.02;;;20.70;99.90;;;;;;5073846;28;20208;-69
2023/09/17 07:35:47;;;;;;;9.95;9.15;;;20.90;99.90;;;;;;5073909;28;20208;-69
2023/09/17 07:38:14;;;;;;;9.45;8.57;;;21.00;99.90;;;;;;5074002;28;20599;-69
2023/09/17 07:40:41;;;;;;;10.45;9.15;;;21.10;99.90;;;;;;5073907;28;20193;-69
2023/09/17 07:43:09;;;;;;;10.20;9.27;;;21.30;99.90;;;;;;5073686;28;20201;-68
2023/09/17 07:45:36;;;;;;;9.60;8.60;;;21.40;99.90;;;;;;5073656;28;20205;-68
2023/09/17 07:48:03;;;;;;;10.52;9.02;;;21.70;99.90;;;;;;5073494;28;20254;-70
2023/09/17 07:50:30;;;;;;;10.48;8.52;;;21.70;99.90;;;;;;5073410;28;20282;-68
2023/09/17 07:52:57;;;;;;;9.63;8.73;;;22.10;99.90;;;;;;5073639;28;20205;-69
2023/09/17 07:55:23;;;;;;;9.38;8.50;;;22.00;99.90;;;;;;5073303;28;20660;-69
2023/09/17 07:57:51;;;;;;;11.43;9.43;;;22.10;99.90;;;;;;5073554;28;20333;-69
2023/09/17 08:00:20;;;;;;;9.77;8.88;;;22.20;99.90;;;;;;5073316;28;20706;-69
2023/09/17 08:02:48;;;;;;;10.52;9.52;;;22.30;99.90;;;;;;5073311;28;20197;-69
2023/09/17 08:05:15;;;;;;;10.90;9.80;;;22.60;99.90;;;;;;5073495;28;20192;-69
2023/09/17 08:07:41;;;;;;;8.93;8.10;;;22.80;99.90;;;;;;5073471;28;20193;-69
2023/09/17 08:10:09;;;;;;;11.02;9.40;;;23.10;99.90;;;;;;5073354;28;20228;-69
2023/09/17 08:12:36;;;;;;;9.38;8.40;;;23.40;99.90;;;;;;5073233;28;20197;-69
2023/09/17 08:15:03;;;;;;;8.95;8.15;;;23.40;99.90;;;;;;5073183;28;20242;-69
2023/09/17 08:17:31;;;;;;;9.40;8.52;;;23.50;99.90;;;;;;5073101;28;20708;-69
2023/09/17 08:19:58;;;;;;;9.90;9.00;;;23.60;99.90;;;;;;5073166;28;20251;-69
2023/09/17 08:22:27;;;;;;;9.43;8.55;;;23.80;99.90;;;;;;5073089;28;20309;-69
2023/09/17 08:24:53;;;;;;;8.10;7.35;;;24.00;99.90;;;;;;5073013;28;20235;-69
2023/09/17 08:27:21;;;;;;;8.60;7.85;;;24.40;99.90;;;;;;5072932;28;20201;-69
2023/09/17 08:29:48;;;;;;;7.57;6.97;;;24.70;99.90;;;;;;5072793;28;20221;-69
2023/09/17 08:32:14;;;;;;;8.00;7.40;;;24.90;99.90;;;;;;5073031;28;20209;-69
2023/09/17 08:34:42;;;;;;;8.35;7.65;;;25.00;99.90;;;;;;5072994;28;20204;-69
2023/09/17 08:37:09;;;;;;;7.72;7.13;;;25.30;99.90;;;;;;5072640;28;20298;-69
2023/09/17 08:39:35;;;;;;;8.40;7.70;;;25.30;99.90;;;;;;5072856;28;20200;-69
2023/09/17 08:42:04;;;;;;;7.78;7.00;;;25.60;99.90;;;;;;5072813;28;20197;-69
2023/09/17 08:44:32;;;;;;;7.55;6.95;;;25.40;99.90;;;;;;5072638;28;20193;-68
2023/09/17 08:46:59;;;;;;;7.57;6.72;;;25.20;99.90;;;;;;5072809;28;20601;-69
2023/09/17 08:49:26;;;;;;;7.78;7.07;;;25.20;99.90;;;;;;5072878;28;20807;-68
2023/09/17 08:51:57;;;;;;;7.47;6.78;;;25.60;99.90;;;;;;5072708;28;20607;-68
2023/09/17 08:54:27;;;;;;;7.35;6.75;;;25.80;99.90;;;;;;5072720;28;20262;-68
2023/09/17 08:56:56;;;;;;;7.03;6.18;;;26.00;99.90;;;;;;5072522;28;20197;-69
2023/09/17 08:59:27;;;;;;;7.88;6.55;;;26.00;99.90;;;;;;5072773;28;20205;-69
2023/09/17 09:01:54;;;;;;;6.85;6.35;;;26.00;99.90;;;;;;5072737;28;20197;-71
2023/09/17 09:04:23;;;;;;;7.15;6.55;;;26.20;99.90;;;;;;5072634;28;20246;-69
2023/09/17 09:06:51;;;;;;;7.22;6.55;;;26.20;99.90;;;;;;5072618;28;20262;-69
2023/09/17 09:09:21;;;;;;;8.25;6.18;;;26.30;99.90;;;;;;5072498;28;20220;-69
2023/09/17 09:11:49;;;;;;;6.85;6.25;;;26.80;99.90;;;;;;5072795;28;20203;-69
2023/09/17 09:14:16;;;;;;;6.88;6.28;;;27.20;99.90;;;;;;5072719;28;20201;-69
2023/09/17 09:16:44;;;;;;;6.88;6.18;;;27.80;99.90;;;;;;5072549;28;20197;-69
2023/09/17 09:19:11;;;;;;;7.20;6.53;;;28.20;99.90;;;;;;5072613;28;20664;-70
2023/09/17 09:21:38;;;;;;;7.85;6.20;;;27.90;99.90;;;;;;5072325;28;20204;-69
2023/09/17 09:24:06;;;;;;;6.65;6.05;;;27.70;99.90;;;;;;5075063;28;20200;-70
2023/09/17 09:26:37;;;;;;;6.50;5.55;;;27.80;99.90;;;;;;5076574;28;20232;-70
2023/09/17 09:29:05;;;;;;;5.75;5.35;;;28.00;99.90;;;;;;5076536;28;20201;-69
2023/09/17 09:31:32;;;;;;;6.10;5.50;;;27.50;99.90;;;;;;5076400;28;20201;-70
2023/09/17 09:34:00;;;;;;;7.32;6.65;;;27.70;99.90;;;;;;5076405;28;20246;-70
2023/09/17 09:36:28;;;;;;;7.38;5.57;;;27.60;99.90;;;;;;5076212;28;20564;-70
2023/09/17 09:38:56;;;;;;;6.53;5.93;;;27.50;99.90;;;;;;5076228;28;20251;-70
2023/09/17 09:41:23;;;;;;;6.40;5.90;;;27.50;99.90;;;;;;5076380;28;20201;-70
2023/09/17 09:43:52;;;;;;;7.00;6.40;;;27.50;99.90;;;;;;5076256;28;20208;-70
2023/09/17 09:46:19;;;;;;;6.47;5.88;;;27.20;99.90;;;;;;5076138;28;20200;-70
2023/09/17 09:48:46;;;;;;;6.38;5.78;;;27.10;99.90;;;;;;5076079;28;20607;-70
2023/09/17 09:51:16;;;;;;;6.68;6.07;;;27.60;99.90;;;;;;5075864;28;20661;-69
2023/09/17 09:53:43;;;;;;;7.45;5.72;;;27.80;99.90;;;;;;5076337;28;20292;-69
2023/09/17 09:56:11;;;;;;;6.53;5.60;;;27.90;99.90;;;;;;5075809;28;20207;-69
2023/09/17 09:58:39;;;;;;;6.35;5.70;;;28.20;99.90;;;;;;5075951;28;20276;-69
2023/09/17 10:01:07;;;;;;;5.82;5.38;;;28.50;99.90;;;;;;5075709;28;20250;-69
2023/09/17 10:03:34;;;;;;;5.50;5.10;;;29.50;99.70;;;;;;5075644;28;20330;-69
2023/09/17 10:06:06;;;;;;;6.28;5.55;;;30.20;98.30;;;;;;5075629;28;20285;-69
2023/09/17 10:08:33;;;;;;;5.60;5.18;;;29.60;97.50;;;;;;5075731;28;20197;-69
2023/09/17 10:11:00;;;;;;;5.82;5.10;;;29.10;97.90;;;;;;5075564;28;20224;-69
2023/09/17 10:13:27;;;;;;;5.30;4.90;;;29.00;98.30;;;;;;5075599;28;20275;-69
2023/09/17 10:15:53;;;;;;;5.80;5.40;;;29.50;97.50;;;;;;5075497;28;20201;-69
2023/09/17 10:18:23;;;;;;;5.03;4.63;;;30.00;96.90;;;;;;5075408;28;20201;-69
2023/09/17 10:20:51;;;;;;;5.40;5.00;;;30.80;96.00;;;;;;5075635;28;20258;-69
2023/09/17 10:23:20;;;;;;;6.07;5.07;;;30.50;94.70;;;;;;5075733;28;20201;-69
2023/09/17 10:25:49;;;;;;;5.90;5.20;;;31.00;94.10;;;;;;5075539;28;20246;-69
2023/09/17 10:28:17;;;;;;;5.30;4.90;;;31.20;93.70;;;;;;5075523;28;20196;-69
2023/09/17 10:30:45;;;;;;;4.70;4.30;;;31.00;92.90;;;;;;5075210;28;20319;-69
2023/09/17 10:33:15;;;;;;;4.97;4.57;;;30.60;93.00;;;;;;5075577;28;20211;-69
2023/09/17 10:35:44;;;;;;;5.32;4.82;;;30.70;93.00;;;;;;5073833;28;20193;-69
2023/09/17 10:38:12;;;;;;;4.90;4.50;;;31.50;92.20;;;;;;5075361;28;20617;-69
2023/09/17 10:40:39;;;;;;;4.80;4.30;;;32.30;91.30;;;;;;5075288;28;20260;-69
2023/09/17 10:43:08;;;;;;;5.00;4.63;;;33.20;88.50;;;;;;5075230;28;20269;-69
2023/09/17 10:45:37;;;;;;;4.68;4.22;;;32.80;87.10;;;;;;5075344;28;20196;-69
2023/09/17 10:48:05;;;;;;;4.80;3.75;;;33.20;84.50;;;;;;5075201;28;20196;-69
2023/09/17 10:50:36;;;;;;;4.25;3.95;;;33.30;82.80;;;;;;5075194;28;20220;-69
2023/09/17 10:53:05;;;;;;;5.60;4.07;;;33.80;80.80;;;;;;5075154;28;20529;-69
2023/09/17 10:55:37;;;;;;;4.47;4.18;;;34.30;78.20;;;;;;5074860;28;20192;-70
2023/09/17 10:58:13;;;;;;;4.60;4.20;;;34.50;77.00;;;;;;5075048;28;20287;-70
2023/09/17 11:00:42;;;;;;;4.20;3.90;;;35.20;73.00;;;;;;5075179;28;20254;-70
2023/09/17 11:03:11;;;;;;;5.13;3.80;;;34.80;70.50;;;;;;5074839;28;20196;-70
2023/09/17 11:05:39;;;;;;;4.07;3.67;;;34.70;69.80;;;;;;5074778;28;20285;-70
2023/09/17 11:08:09;;;;;;;3.83;3.53;;;35.00;68.70;;;;;;5074617;28;20582;-71
2023/09/17 11:10:41;;;;;;;6.25;4.35;;;35.80;67.20;;;;;;5074856;28;20224;-70
2023/09/17 11:13:10;;;;;;;4.10;3.70;;;35.70;66.40;;;;;;5074883;28;20197;-70
2023/09/17 11:15:37;;;;;;;4.35;4.05;;;35.10;65.10;;;;;;5074592;28;20586;-69
2023/09/17 11:18:07;;;;;;;5.40;3.58;;;34.60;65.80;;;;;;5074524;28;20192;-70
2023/09/17 11:20:35;;;;;;;4.03;3.72;;;34.50;63.90;;;;;;5074370;28;20203;-69
2023/09/17 11:23:02;;;;;;;4.15;3.25;;;34.10;64.50;;;;;;5074611;28;20207;-70
2023/09/17 11:25:39;;;;;;;4.20;3.90;;;35.20;62.30;;;;;;5074588;28;20551;-69
2023/09/17 11:28:11;;;;;;;3.63;3.30;;;35.40;61.40;;;;;;5074701;28;20197;-70
2023/09/17 11:30:57;;;;;;;3.75;3.33;;;36.60;59.50;;;;;;5074202;28;20311;-70
2023/09/17 11:33:26;;;;;;;3.60;3.30;;;37.60;57.30;;;;;;5074479;28;20206;-70
2023/09/17 11:35:53;;;;;;;3.72;3.42;;;37.30;55.40;;;;;;5074143;28;20196;-70
2023/09/17 11:38:24;;;;;;;3.70;3.40;;;36.90;55.10;;;;;;5074107;28;20250;-70
2023/09/17 11:41:07;;;;;;;4.15;3.75;;;37.00;54.80;;;;;;5074035;28;20315;-70
2023/09/17 11:43:35;;;;;;;3.95;3.60;;;37.30;54.00;;;;;;5073972;28;20200;-70
2023/09/17 11:46:05;;;;;;;3.70;3.38;;;37.20;53.30;;;;;;5073738;28;20274;-70
2023/09/17 11:48:32;;;;;;;4.00;3.70;;;36.40;53.80;;;;;;5074492;28;20230;-70
2023/09/17 11:51:19;;;;;;;3.80;3.50;;;36.40;53.90;;;;;;5073777;28;20533;-69
2023/09/17 11:53:50;;;;;;;3.72;3.38;;;36.80;52.40;;;;;;5073759;28;20200;-70
2023/09/17 11:56:19;;;;;;;4.05;3.75;;;37.10;52.20;;;;;;5073697;28;20207;-70
2023/09/17 11:58:46;;;;;;;3.35;3.15;;;37.30;51.70;;;;;;5073604;28;20801;-70
2023/09/17 12:01:13;;;;;;;5.30;3.42;;;37.10;51.60;;;;;;5073391;28;20699;-69
2023/09/17 12:03:40;;;;;;;3.10;2.90;;;37.10;51.10;;;;;;5073651;28;20258;-69
2023/09/17 12:06:08;;;;;;;3.28;3.08;;;36.70;51.00;;;;;;5073525;28;20192;-69
2023/09/17 12:08:35;;;;;;;3.33;3.13;;;36.70;50.70;;;;;;5073447;28;20246;-69
2023/09/17 12:11:06;;;;;;;3.45;3.15;;;37.00;50.20;;;;;;5073614;28;20200;-69
2023/09/17 12:13:34;;;;;;;4.47;3.50;;;37.40;50.30;;;;;;5073281;28;20710;-69
2023/09/17 12:16:02;;;;;;;3.53;3.22;;;37.00;50.50;;;;;;5073579;28;20200;-70
2023/09/17 12:18:29;;;;;;;3.55;3.22;;;36.20;50.20;;;;;;5073393;28;20200;-69
2023/09/17 12:20:59;;;;;;;3.60;3.40;;;36.00;50.40;;;;;;5073078;28;20216;-70
2023/09/17 12:23:37;;;;;;;3.83;3.50;;;35.90;50.60;;;;;;5073661;28;20200;-70
2023/09/17 12:26:04;;;;;;;3.75;3.30;;;36.70;50.40;;;;;;5073123;28;20193;-69
2023/09/17 12:28:30;;;;;;;3.13;2.92;;;36.00;50.20;;;;;;5073222;28;20203;-70
2023/09/17 12:30:58;;;;;;;4.47;3.55;;;36.70;49.80;;;;;;5073222;28;20247;-69
2023/09/17 12:33:25;;;;;;;3.47;3.17;;;37.10;49.30;;;;;;5073054;28;20192;-70
2023/09/17 12:35:52;;;;;;;3.42;3.17;;;36.90;48.50;;;;;;5072753;28;20204;-69
2023/09/17 12:38:19;;;;;;;4.10;3.70;;;37.20;48.00;;;;;;5073098;28;20200;-69
2023/09/17 12:40:46;;;;;;;3.70;3.40;;;37.70;48.10;;;;;;5072895;28;20603;-70
2023/09/17 12:43:12;;;;;;;3.55;3.28;;;38.30;47.70;;;;;;5072974;28;20254;-69
2023/09/17 12:45:39;;;;;;;3.53;3.17;;;37.70;46.30;;;;;;5072855;28;20207;-69